sensor_id;sensor_type;location;lat;lon;timestamp;pressure;altitude;pressure_sealevel;temperature;humidity
59409;BME280;45213;32.654;-115.458;2022-11-11T00:02:28;101743.09;;;22.25;21.20
59409;BME280;45213;32.654;-115.458;2022-11-11T00:05:14;101739.97;;;22.06;20.83
59409;BME280;45213;32.654;-115.458;2022-11-11T00:07:59;101738.75;;;21.82;21.19
59409;BME280;45213;32.654;-115.458;2022-11-11T00:10:44;101738.53;;;21.53;21.19
59409;BME280;45213;32.654;-115.458;2022-11-11T00:13:30;101750.38;;;21.35;21.75
59409;BME280;45213;32.654;-115.458;2022-11-11T00:16:17;101749.75;;;21.22;22.06
59409;BME280;45213;32.654;-115.458;2022-11-11T00:19:03;101745.59;;;21.09;21.75
59409;BME280;45213;32.654;-115.458;2022-11-11T00:22:22;101738.03;;;20.89;21.91
59409;BME280;45213;32.654;-115.458;2022-11-11T00:25:26;101732.03;;;20.79;21.90
59409;BME280;45213;32.654;-115.458;2022-11-11T00:28:11;101745.63;;;20.59;22.07
59409;BME280;45213;32.654;-115.458;2022-11-11T00:31:07;101730.88;;;20.41;21.56
59409;BME280;45213;32.654;-115.458;2022-11-11T00:33:52;101730.28;;;20.25;21.16
59409;BME280;45213;32.654;-115.458;2022-11-11T00:36:37;101730.34;;;20.20;21.24
59409;BME280;45213;32.654;-115.458;2022-11-11T00:39:22;101735.72;;;20.16;21.25
59409;BME280;45213;32.654;-115.458;2022-11-11T00:42:07;101735.84;;;20.08;21.12
59409;BME280;45213;32.654;-115.458;2022-11-11T00:44:52;101732.34;;;20.06;21.35
59409;BME280;45213;32.654;-115.458;2022-11-11T00:47:37;101739.56;;;19.95;21.48
59409;BME280;45213;32.654;-115.458;2022-11-11T00:50:41;101730.69;;;19.99;22.10
59409;BME280;45213;32.654;-115.458;2022-11-11T00:53:45;101734.41;;;19.86;21.61
59409;BME280;45213;32.654;-115.458;2022-11-11T00:56:30;101738.06;;;19.75;22.47
59409;BME280;45213;32.654;-115.458;2022-11-11T00:59:15;101739.94;;;19.67;22.47
59409;BME280;45213;32.654;-115.458;2022-11-11T01:02:00;101738.22;;;19.63;23.00
59409;BME280;45213;32.654;-115.458;2022-11-11T01:04:45;101736.50;;;19.60;23.23
59409;BME280;45213;32.654;-115.458;2022-11-11T01:07:30;101741.00;;;19.52;23.21
59409;BME280;45213;32.654;-115.458;2022-11-11T01:10:16;101748.06;;;19.50;23.95
59409;BME280;45213;32.654;-115.458;2022-11-11T01:13:24;101746.47;;;19.37;23.76
59409;BME280;45213;32.654;-115.458;2022-11-11T01:16:21;101745.66;;;19.32;24.35
59409;BME280;45213;32.654;-115.458;2022-11-11T01:19:06;101745.69;;;19.27;23.94
59409;BME280;45213;32.654;-115.458;2022-11-11T01:21:51;101748.44;;;19.19;24.31
59409;BME280;45213;32.654;-115.458;2022-11-11T01:24:36;101752.00;;;19.17;25.21
59409;BME280;45213;32.654;-115.458;2022-11-11T01:27:22;101747.63;;;19.13;25.14
59409;BME280;45213;32.654;-115.458;2022-11-11T01:30:07;101756.53;;;19.06;25.31
59409;BME280;45213;32.654;-115.458;2022-11-11T01:32:52;101753.03;;;19.04;25.25
59409;BME280;45213;32.654;-115.458;2022-11-11T01:35:40;101756.63;;;18.96;25.11
59409;BME280;45213;32.654;-115.458;2022-11-11T01:38:25;101747.84;;;18.91;26.47
59409;BME280;45213;32.654;-115.458;2022-11-11T01:41:13;101746.13;;;18.90;26.13
59409;BME280;45213;32.654;-115.458;2022-11-11T01:44:40;101751.44;;;18.84;25.45
59409;BME280;45213;32.654;-115.458;2022-11-11T01:47:26;101750.63;;;18.77;26.09
59409;BME280;45213;32.654;-115.458;2022-11-11T01:50:31;101762.06;;;18.73;25.59
59409;BME280;45213;32.654;-115.458;2022-11-11T01:53:16;101763.88;;;18.70;25.98
59409;BME280;45213;32.654;-115.458;2022-11-11T01:56:02;101768.31;;;18.65;26.22
59409;BME280;45213;32.654;-115.458;2022-11-11T01:58:48;101765.69;;;18.62;26.24
59409;BME280;45213;32.654;-115.458;2022-11-11T02:01:35;101772.81;;;18.53;25.91
59409;BME280;45213;32.654;-115.458;2022-11-11T02:04:20;101767.53;;;18.50;26.27
59409;BME280;45213;32.654;-115.458;2022-11-11T02:07:25;101769.34;;;18.45;26.38
59409;BME280;45213;32.654;-115.458;2022-11-11T02:10:10;101779.03;;;18.42;26.81
59409;BME280;45213;32.654;-115.458;2022-11-11T02:12:55;101766.78;;;18.36;27.32
59409;BME280;45213;32.654;-115.458;2022-11-11T02:15:59;101780.00;;;18.33;27.54
59409;BME280;45213;32.654;-115.458;2022-11-11T02:18:44;101775.63;;;18.29;27.27
59409;BME280;45213;32.654;-115.458;2022-11-11T02:21:34;101781.81;;;18.25;27.74
59409;BME280;45213;32.654;-115.458;2022-11-11T02:24:21;101778.31;;;18.21;28.30
59409;BME280;45213;32.654;-115.458;2022-11-11T02:27:09;101769.59;;;18.10;27.06
59409;BME280;45213;32.654;-115.458;2022-11-11T02:29:58;101781.97;;;18.03;27.27
59409;BME280;45213;32.654;-115.458;2022-11-11T02:32:47;101781.97;;;18.00;27.29
59409;BME280;45213;32.654;-115.458;2022-11-11T02:35:36;101790.75;;;17.99;27.85
59409;BME280;45213;32.654;-115.458;2022-11-11T02:38:25;101797.81;;;17.91;29.01
59409;BME280;45213;32.654;-115.458;2022-11-11T02:41:10;101796.13;;;17.85;29.45
59409;BME280;45213;32.654;-115.458;2022-11-11T02:44:14;101796.09;;;17.78;29.98
59409;BME280;45213;32.654;-115.458;2022-11-11T02:46:59;101797.03;;;17.67;30.86
59409;BME280;45213;32.654;-115.458;2022-11-11T02:49:44;101790.91;;;17.64;30.78
59409;BME280;45213;32.654;-115.458;2022-11-11T02:52:29;101794.44;;;17.58;30.76
59409;BME280;45213;32.654;-115.458;2022-11-11T02:55:14;101798.84;;;17.48;31.43
59409;BME280;45213;32.654;-115.458;2022-11-11T02:57:59;101795.38;;;17.40;31.05
59409;BME280;45213;32.654;-115.458;2022-11-11T03:00:44;101801.53;;;17.41;31.94
59409;BME280;45213;32.654;-115.458;2022-11-11T03:03:29;101807.69;;;17.33;32.37
59409;BME280;45213;32.654;-115.458;2022-11-11T03:06:14;101810.31;;;17.21;32.03
59409;BME280;45213;32.654;-115.458;2022-11-11T03:08:59;101804.22;;;17.15;30.80
59409;BME280;45213;32.654;-115.458;2022-11-11T03:11:44;101815.63;;;17.14;31.75
59409;BME280;45213;32.654;-115.458;2022-11-11T03:14:29;101814.75;;;17.13;32.39
59409;BME280;45213;32.654;-115.458;2022-11-11T03:17:14;101810.38;;;17.06;32.73
59409;BME280;45213;32.654;-115.458;2022-11-11T03:20:18;101819.16;;;16.96;33.57
59409;BME280;45213;32.654;-115.458;2022-11-11T03:23:22;101825.31;;;16.99;33.12
59409;BME280;45213;32.654;-115.458;2022-11-11T03:26:07;101822.69;;;16.85;33.02
59409;BME280;45213;32.654;-115.458;2022-11-11T03:28:52;101813.00;;;16.78;32.25
59409;BME280;45213;32.654;-115.458;2022-11-11T03:31:37;101827.91;;;16.70;32.44
59409;BME280;45213;32.654;-115.458;2022-11-11T03:34:22;101820.03;;;16.72;32.33
59409;BME280;45213;32.654;-115.458;2022-11-11T03:37:08;101825.28;;;16.62;33.09
59409;BME280;45213;32.654;-115.458;2022-11-11T03:40:13;101822.66;;;16.67;33.15
59409;BME280;45213;32.654;-115.458;2022-11-11T03:42:58;101832.28;;;16.63;33.45
59409;BME280;45213;32.654;-115.458;2022-11-11T03:45:44;101830.53;;;16.56;32.69
59409;BME280;45213;32.654;-115.458;2022-11-11T03:48:32;101839.28;;;16.54;33.31
59409;BME280;45213;32.654;-115.458;2022-11-11T03:51:17;101839.28;;;16.47;32.75
59409;BME280;45213;32.654;-115.458;2022-11-11T03:54:02;101848.88;;;16.36;32.16
59409;BME280;45213;32.654;-115.458;2022-11-11T03:56:48;101849.75;;;16.34;35.88
59409;BME280;45213;32.654;-115.458;2022-11-11T03:59:33;101852.41;;;16.34;39.91
59409;BME280;45213;32.654;-115.458;2022-11-11T04:02:17;101855.91;;;16.31;40.61
59409;BME280;45213;32.654;-115.458;2022-11-11T04:05:21;101859.38;;;16.21;39.45
59409;BME280;45213;32.654;-115.458;2022-11-11T04:08:24;101863.75;;;16.13;38.76
59409;BME280;45213;32.654;-115.458;2022-11-11T04:11:37;101861.06;;;16.10;39.03
59409;BME280;45213;32.654;-115.458;2022-11-11T04:14:22;101872.50;;;16.16;38.60
59409;BME280;45213;32.654;-115.458;2022-11-11T04:17:26;101870.75;;;16.15;37.84
59409;BME280;45213;32.654;-115.458;2022-11-11T04:20:11;101871.59;;;16.03;35.68
59409;BME280;45213;32.654;-115.458;2022-11-11T04:23:14;101877.66;;;15.93;35.53
59409;BME280;45213;32.654;-115.458;2022-11-11T04:26:00;101880.25;;;15.87;35.71
59409;BME280;45213;32.654;-115.458;2022-11-11T04:28:45;101875.00;;;15.92;34.16
59409;BME280;45213;32.654;-115.458;2022-11-11T04:31:49;101875.06;;;15.99;34.75
59409;BME280;45213;32.654;-115.458;2022-11-11T04:34:54;101875.03;;;15.96;36.69
59409;BME280;45213;32.654;-115.458;2022-11-11T04:37:47;101866.25;;;15.86;34.17
59409;BME280;45213;32.654;-115.458;2022-11-11T04:40:35;101868.03;;;15.95;36.86
59409;BME280;45213;32.654;-115.458;2022-11-11T04:43:39;101868.03;;;15.88;33.14
59409;BME280;45213;32.654;-115.458;2022-11-11T04:46:53;101872.38;;;15.89;34.06
59409;BME280;45213;32.654;-115.458;2022-11-11T04:49:38;101875.03;;;15.90;33.80
59409;BME280;45213;32.654;-115.458;2022-11-11T04:52:23;101871.47;;;15.79;33.00
59409;BME280;45213;32.654;-115.458;2022-11-11T04:55:11;101882.81;;;15.72;32.99
59409;BME280;45213;32.654;-115.458;2022-11-11T04:58:15;101878.38;;;15.68;33.15
59409;BME280;45213;32.654;-115.458;2022-11-11T05:01:00;101874.97;;;15.78;32.39
59409;BME280;45213;32.654;-115.458;2022-11-11T05:03:45;101871.44;;;15.76;31.84
59409;BME280;45213;32.654;-115.458;2022-11-11T05:06:30;101871.47;;;15.79;33.66
59409;BME280;45213;32.654;-115.458;2022-11-11T05:09:33;101871.47;;;15.79;32.21
59409;BME280;45213;32.654;-115.458;2022-11-11T05:12:18;101878.44;;;15.75;32.97
59409;BME280;45213;32.654;-115.458;2022-11-11T05:15:03;101873.22;;;15.77;31.24
59409;BME280;45213;32.654;-115.458;2022-11-11T05:18:08;101884.63;;;15.82;32.64
59409;BME280;45213;32.654;-115.458;2022-11-11T05:21:22;101887.22;;;15.79;31.24
59409;BME280;45213;32.654;-115.458;2022-11-11T05:24:09;101885.47;;;15.78;31.90
59409;BME280;45213;32.654;-115.458;2022-11-11T05:27:32;101884.56;;;15.73;31.78
59409;BME280;45213;32.654;-115.458;2022-11-11T05:30:17;101886.31;;;15.71;32.16
59409;BME280;45213;32.654;-115.458;2022-11-11T05:33:02;101894.09;;;15.61;31.41
59409;BME280;45213;32.654;-115.458;2022-11-11T05:35:47;101893.25;;;15.62;31.35
59409;BME280;45213;32.654;-115.458;2022-11-11T05:38:32;101901.13;;;15.65;32.58
59409;BME280;45213;32.654;-115.458;2022-11-11T05:41:17;101903.66;;;15.50;32.38
59409;BME280;45213;32.654;-115.458;2022-11-11T05:44:02;101915.81;;;15.36;31.95
59409;BME280;45213;32.654;-115.458;2022-11-11T05:46:47;101910.38;;;15.14;31.99
59409;BME280;45213;32.654;-115.458;2022-11-11T05:49:32;101904.16;;;15.00;32.92
59409;BME280;45213;32.654;-115.458;2022-11-11T05:52:17;101905.91;;;15.01;33.51
59409;BME280;45213;32.654;-115.458;2022-11-11T05:55:03;101898.91;;;15.00;32.54
59409;BME280;45213;32.654;-115.458;2022-11-11T05:57:48;101904.19;;;15.04;33.34
59409;BME280;45213;32.654;-115.458;2022-11-11T06:00:34;101901.56;;;15.04;33.11
59409;BME280;45213;32.654;-115.458;2022-11-11T06:03:19;101905.91;;;15.01;32.53
59409;BME280;45213;32.654;-115.458;2022-11-11T06:06:04;101900.56;;;14.92;31.82
59409;BME280;45213;32.654;-115.458;2022-11-11T06:08:49;101903.22;;;14.93;31.72
59409;BME280;45213;32.654;-115.458;2022-11-11T06:11:34;101897.13;;;14.97;30.88
59409;BME280;45213;32.654;-115.458;2022-11-11T06:14:19;101894.50;;;14.94;30.58
59409;BME280;45213;32.654;-115.458;2022-11-11T06:17:04;101903.19;;;14.92;30.05
59409;BME280;45213;32.654;-115.458;2022-11-11T06:19:49;101901.44;;;14.91;29.54
59409;BME280;45213;32.654;-115.458;2022-11-11T06:22:34;101904.16;;;15.00;29.43
59409;BME280;45213;32.654;-115.458;2022-11-11T06:25:38;101909.38;;;14.98;28.50
59409;BME280;45213;32.654;-115.458;2022-11-11T06:31:31;101903.22;;;14.93;29.48
59409;BME280;45213;32.654;-115.458;2022-11-11T06:34:16;101909.38;;;14.97;28.82
59409;BME280;45213;32.654;-115.458;2022-11-11T06:37:01;101898.84;;;14.94;29.63
59409;BME280;45213;32.654;-115.458;2022-11-11T06:39:46;101900.63;;;14.98;30.12
59409;BME280;45213;32.654;-115.458;2022-11-11T06:42:35;101893.66;;;14.97;29.19
59409;BME280;45213;32.654;-115.458;2022-11-11T06:45:21;101905.88;;;14.98;29.37
59409;BME280;45213;32.654;-115.458;2022-11-11T06:48:07;101911.06;;;14.92;29.37
59409;BME280;45213;32.654;-115.458;2022-11-11T06:50:52;101908.44;;;14.90;30.17
59409;BME280;45213;32.654;-115.458;2022-11-11T06:53:37;101915.44;;;14.91;29.82
59409;BME280;45213;32.654;-115.458;2022-11-11T06:56:22;101908.44;;;14.89;30.09
59409;BME280;45213;32.654;-115.458;2022-11-11T06:59:07;101900.53;;;14.86;29.95
59409;BME280;45213;32.654;-115.458;2022-11-11T07:01:52;101907.41;;;14.76;29.20
59409;BME280;45213;32.654;-115.458;2022-11-11T07:04:37;101909.06;;;14.66;29.52
59409;BME280;45213;32.654;-115.458;2022-11-11T07:07:22;101904.72;;;14.65;29.46
59409;BME280;45213;32.654;-115.458;2022-11-11T07:10:07;101898.47;;;14.55;29.34
59409;BME280;45213;32.654;-115.458;2022-11-11T07:12:53;101907.09;;;14.48;29.88
59409;BME280;45213;32.654;-115.458;2022-11-11T07:15:39;101900.97;;;14.45;29.75
59409;BME280;45213;32.654;-115.458;2022-11-11T07:18:24;101896.66;;;14.50;30.29
59409;BME280;45213;32.654;-115.458;2022-11-11T07:21:09;101894.88;;;14.47;29.45
59409;BME280;45213;32.654;-115.458;2022-11-11T07:23:54;101894.84;;;14.46;29.74
59409;BME280;45213;32.654;-115.458;2022-11-11T07:26:38;101897.25;;;14.26;29.88
59409;BME280;45213;32.654;-115.458;2022-11-11T07:29:24;101899.56;;;13.99;29.96
59409;BME280;45213;32.654;-115.458;2022-11-11T07:32:09;101903.09;;;14.02;30.89
59409;BME280;45213;32.654;-115.458;2022-11-11T07:34:53;101902.22;;;14.03;30.45
59409;BME280;45213;32.654;-115.458;2022-11-11T07:37:39;101905.72;;;14.02;30.77
59409;BME280;45213;32.654;-115.458;2022-11-11T07:40:24;101900.41;;;13.97;30.44
59409;BME280;45213;32.654;-115.458;2022-11-11T07:43:09;101904.84;;;14.03;31.21
59409;BME280;45213;32.654;-115.458;2022-11-11T07:45:54;101898.81;;;14.08;31.27
59409;BME280;45213;32.654;-115.458;2022-11-11T07:48:39;101898.75;;;14.05;31.70
59409;BME280;45213;32.654;-115.458;2022-11-11T07:51:24;101900.28;;;13.88;31.54
59409;BME280;45213;32.654;-115.458;2022-11-11T07:54:09;101893.97;;;13.72;31.40
59409;BME280;45213;32.654;-115.458;2022-11-11T07:56:54;101896.31;;;13.52;31.88
59409;BME280;45213;32.654;-115.458;2022-11-11T07:59:39;101900.47;;;13.39;31.81
59409;BME280;45213;32.654;-115.458;2022-11-11T08:02:25;101900.59;;;13.48;32.21
59409;BME280;45213;32.654;-115.458;2022-11-11T08:05:10;101892.06;;;13.62;32.44
59409;BME280;45213;32.654;-115.458;2022-11-11T08:07:55;101890.38;;;13.67;32.51
59409;BME280;45213;32.654;-115.458;2022-11-11T08:10:40;101892.03;;;13.60;32.44
59409;BME280;45213;32.654;-115.458;2022-11-11T08:13:24;101891.13;;;13.56;32.03
59409;BME280;45213;32.654;-115.458;2022-11-11T08:16:25;101895.47;;;13.54;32.20
59409;BME280;45213;32.654;-115.458;2022-11-11T08:19:10;101891.06;;;13.53;32.73
59409;BME280;45213;32.654;-115.458;2022-11-11T08:21:54;101900.66;;;13.51;33.02
59409;BME280;45213;32.654;-115.458;2022-11-11T08:24:39;101892.88;;;13.56;33.63
59409;BME280;45213;32.654;-115.458;2022-11-11T08:27:24;101898.22;;;13.64;33.37
59409;BME280;45213;32.654;-115.458;2022-11-11T08:30:10;101898.97;;;13.56;33.88
59409;BME280;45213;32.654;-115.458;2022-11-11T08:33:04;101897.34;;;13.65;34.54
59409;BME280;45213;32.654;-115.458;2022-11-11T08:35:49;101893.03;;;13.68;34.46
59409;BME280;45213;32.654;-115.458;2022-11-11T08:38:34;101882.59;;;13.70;34.70
59409;BME280;45213;32.654;-115.458;2022-11-11T08:41:19;101886.00;;;13.63;34.88
59409;BME280;45213;32.654;-115.458;2022-11-11T08:44:05;101891.97;;;13.55;34.91
59409;BME280;45213;32.654;-115.458;2022-11-11T08:46:50;101892.69;;;13.44;34.67
59409;BME280;45213;32.654;-115.458;2022-11-11T08:49:36;101899.75;;;13.51;34.79
59409;BME280;45213;32.654;-115.458;2022-11-11T08:52:21;101904.09;;;13.47;34.49
59409;BME280;45213;32.654;-115.458;2022-11-11T08:55:06;101909.38;;;13.53;35.11
59409;BME280;45213;32.654;-115.458;2022-11-11T08:58:03;101901.56;;;13.55;35.12
59409;BME280;45213;32.654;-115.458;2022-11-11T09:00:48;101904.25;;;13.60;34.61
59409;BME280;45213;32.654;-115.458;2022-11-11T09:03:33;101904.34;;;13.66;34.77
59409;BME280;45213;32.654;-115.458;2022-11-11T09:06:18;101903.44;;;13.64;34.22
59409;BME280;45213;32.654;-115.458;2022-11-11T09:09:03;101906.94;;;13.64;34.53
59409;BME280;45213;32.654;-115.458;2022-11-11T09:11:48;101905.25;;;13.68;34.77
59409;BME280;45213;32.654;-115.458;2022-11-11T09:14:33;101905.19;;;13.65;35.43
59409;BME280;45213;32.654;-115.458;2022-11-11T09:17:18;101906.03;;;13.61;35.16
59409;BME280;45213;32.654;-115.458;2022-11-11T09:20:04;101911.88;;;13.44;36.24
59409;BME280;45213;32.654;-115.458;2022-11-11T09:22:49;101909.06;;;13.32;35.96
59409;BME280;45213;32.654;-115.458;2022-11-11T09:25:34;101914.34;;;13.35;36.05
59409;BME280;45213;32.654;-115.458;2022-11-11T09:28:19;101923.06;;;13.34;35.39
59409;BME280;45213;32.654;-115.458;2022-11-11T09:31:04;101924.81;;;13.35;35.53
59409;BME280;45213;32.654;-115.458;2022-11-11T09:33:50;101923.81;;;13.28;35.33
59409;BME280;45213;32.654;-115.458;2022-11-11T09:36:35;101924.47;;;13.16;35.38
59409;BME280;45213;32.654;-115.458;2022-11-11T09:39:20;101923.44;;;13.07;35.26
59409;BME280;45213;32.654;-115.458;2022-11-11T09:51:16;101921.94;;;13.20;33.42
59409;BME280;45213;32.654;-115.458;2022-11-11T09:54:10;101927.03;;;13.10;33.67
59409;BME280;45213;32.654;-115.458;2022-11-11T09:57:00;101927.13;;;13.18;34.01
59409;BME280;45213;32.654;-115.458;2022-11-11T09:59:50;101922.63;;;13.09;34.21
59409;BME280;45213;32.654;-115.458;2022-11-11T10:02:45;101925.59;;;12.81;33.38
59409;BME280;45213;32.654;-115.458;2022-11-11T10:05:33;101923.91;;;12.83;34.16
59409;BME280;45213;32.654;-115.458;2022-11-11T10:08:26;101930.91;;;12.84;33.78
59409;BME280;45213;32.654;-115.458;2022-11-11T10:11:20;101925.56;;;12.78;34.37
59409;BME280;45213;32.654;-115.458;2022-11-11T10:14:08;101922.75;;;12.67;34.98
59409;BME280;45213;32.654;-115.458;2022-11-11T10:17:06;101926.91;;;12.57;35.02
59409;BME280;45213;32.654;-115.458;2022-11-11T10:20:31;101925.09;;;12.53;35.42
59409;BME280;45213;32.654;-115.458;2022-11-11T10:23:20;101929.34;;;12.48;35.04
59409;BME280;45213;32.654;-115.458;2022-11-11T10:26:18;101925.50;;;12.29;35.73
59409;BME280;45213;32.654;-115.458;2022-11-11T10:29:17;101928.31;;;12.40;35.35
59409;BME280;45213;32.654;-115.458;2022-11-11T10:32:09;101935.25;;;12.38;35.07
59409;BME280;45213;32.654;-115.458;2022-11-11T10:35:04;101926.94;;;12.15;35.35
59409;BME280;45213;32.654;-115.458;2022-11-11T10:41:43;101924.56;;;11.86;34.80
59409;BME280;45213;32.654;-115.458;2022-11-11T10:44:33;101918.72;;;11.96;35.11
59409;BME280;45213;32.654;-115.458;2022-11-11T10:47:33;101918.72;;;11.95;35.41
59409;BME280;45213;32.654;-115.458;2022-11-11T10:50:20;101916.16;;;11.98;35.36
59409;BME280;45213;32.654;-115.458;2022-11-11T10:53:12;101917.13;;;12.03;35.10
59409;BME280;45213;32.654;-115.458;2022-11-11T10:56:24;101909.88;;;11.89;35.58
59409;BME280;45213;32.654;-115.458;2022-11-11T10:59:23;101904.75;;;11.94;35.23
59409;BME280;45213;32.654;-115.458;2022-11-11T11:02:18;101896.97;;;11.96;36.16
59409;BME280;45213;32.654;-115.458;2022-11-11T11:05:30;101902.81;;;11.85;35.91
59409;BME280;45213;32.654;-115.458;2022-11-11T11:08:19;101900.06;;;11.81;35.69
59409;BME280;45213;32.654;-115.458;2022-11-11T11:14:18;101893.97;;;11.80;36.38
59409;BME280;45213;32.654;-115.458;2022-11-11T11:17:13;101896.00;;;11.90;35.81
59409;BME280;45213;32.654;-115.458;2022-11-11T11:20:11;101900.44;;;11.96;36.03
59409;BME280;45213;32.654;-115.458;2022-11-11T11:22:57;101905.44;;;11.87;35.61
59409;BME280;45213;32.654;-115.458;2022-11-11T11:25:51;101900.06;;;11.81;35.72
59409;BME280;45213;32.654;-115.458;2022-11-11T11:29:07;101903.59;;;11.81;36.39
59409;BME280;45213;32.654;-115.458;2022-11-11T11:31:52;101906.19;;;11.81;36.19
59409;BME280;45213;32.654;-115.458;2022-11-11T11:34:51;101907.91;;;11.79;36.51
59409;BME280;45213;32.654;-115.458;2022-11-11T11:38:03;101907.03;;;11.80;36.21
59409;BME280;45213;32.654;-115.458;2022-11-11T11:40:54;101912.25;;;11.80;35.96
59409;BME280;45213;32.654;-115.458;2022-11-11T11:43:41;101907.75;;;11.73;36.03
59409;BME280;45213;32.654;-115.458;2022-11-11T11:46:29;101909.53;;;11.76;36.06
59409;BME280;45213;32.654;-115.458;2022-11-11T11:49:27;101907.59;;;11.67;36.88
59409;BME280;45213;32.654;-115.458;2022-11-11T11:52:42;101905.91;;;11.69;36.35
59409;BME280;45213;32.654;-115.458;2022-11-11T11:55:41;101910.09;;;11.61;36.83
59409;BME280;45213;32.654;-115.458;2022-11-11T11:59:25;101911.84;;;11.62;37.57
59409;BME280;45213;32.654;-115.458;2022-11-11T12:20:27;101929.84;;;11.51;37.19
59409;BME280;45213;32.654;-115.458;2022-11-11T12:35:32;101927.78;;;11.36;37.68
59409;BME280;45213;32.654;-115.458;2022-11-11T12:42:13;101936.31;;;11.29;37.52
59409;BME280;45213;32.654;-115.458;2022-11-11T12:45:21;101927.22;;;11.13;37.75
59409;BME280;45213;32.654;-115.458;2022-11-11T13:01:44;101953.84;;;11.36;37.55
59409;BME280;45213;32.654;-115.458;2022-11-11T13:05:08;101953.66;;;11.28;37.38
59409;BME280;45213;32.654;-115.458;2022-11-11T13:08:05;101938.22;;;11.36;37.35
59409;BME280;45213;32.654;-115.458;2022-11-11T13:11:06;101941.66;;;11.35;36.89
59409;BME280;45213;32.654;-115.458;2022-11-11T13:17:00;101940.59;;;11.27;36.58
59409;BME280;45213;32.654;-115.458;2022-11-11T13:22:36;101950.31;;;11.34;36.87
59409;BME280;45213;32.654;-115.458;2022-11-11T13:25:24;101953.75;;;11.33;36.55
59409;BME280;45213;32.654;-115.458;2022-11-11T13:28:21;101953.69;;;11.30;36.71
59409;BME280;45213;32.654;-115.458;2022-11-11T13:31:30;101962.22;;;11.23;36.00
59409;BME280;45213;32.654;-115.458;2022-11-11T13:34:16;101960.91;;;11.40;35.64
59409;BME280;45213;32.654;-115.458;2022-11-11T13:37:04;101957.28;;;11.35;35.23
59409;BME280;45213;32.654;-115.458;2022-11-11T13:39:51;101960.72;;;11.33;35.13
59409;BME280;45213;32.654;-115.458;2022-11-11T13:42:40;101953.00;;;11.37;35.13
59409;BME280;45213;32.654;-115.458;2022-11-11T13:45:41;101956.56;;;11.41;35.17
59409;BME280;45213;32.654;-115.458;2022-11-11T13:48:42;101955.88;;;11.48;36.09
59409;BME280;45213;32.654;-115.458;2022-11-11T13:57:23;101966.34;;;11.49;34.98
59409;BME280;45213;32.654;-115.458;2022-11-11T14:08:58;101971.59;;;11.51;34.54
59409;BME280;45213;32.654;-115.458;2022-11-11T14:11:43;101975.13;;;11.53;34.21
59409;BME280;45213;32.654;-115.458;2022-11-11T14:17:19;101977.28;;;11.71;34.67
59409;BME280;45213;32.654;-115.458;2022-11-11T14:20:39;101981.69;;;11.72;34.58
59409;BME280;45213;32.654;-115.458;2022-11-11T14:23:41;101987.88;;;11.77;34.22
59409;BME280;45213;32.654;-115.458;2022-11-11T14:26:27;101990.41;;;12.99;32.22
59409;BME280;45213;32.654;-115.458;2022-11-11T14:29:19;102001.94;;;14.87;28.95
59409;BME280;45213;32.654;-115.458;2022-11-11T14:35:34;101988.44;;;17.08;25.56
59409;BME280;45213;32.654;-115.458;2022-11-11T14:41:51;102002.47;;;17.17;25.30
59409;BME280;45213;32.654;-115.458;2022-11-11T14:47:38;102023.50;;;16.98;25.61
59409;BME280;45213;32.654;-115.458;2022-11-11T14:53:19;102033.34;;;15.71;27.87
59409;BME280;45213;32.654;-115.458;2022-11-11T14:56:14;102029.53;;;15.36;29.00
59409;BME280;45213;32.654;-115.458;2022-11-11T14:59:05;102038.63;;;14.83;30.21
59409;BME280;45213;32.654;-115.458;2022-11-11T15:01:53;102041.66;;;14.49;30.89
59409;BME280;45213;32.654;-115.458;2022-11-11T15:04:39;102043.38;;;14.45;30.91
59409;BME280;45213;32.654;-115.458;2022-11-11T15:07:32;102032.75;;;14.37;31.05
59409;BME280;45213;32.654;-115.458;2022-11-11T15:13:58;102041.28;;;14.21;31.46
59409;BME280;45213;32.654;-115.458;2022-11-11T15:29:05;102059.66;;;14.88;31.51
59409;BME280;45213;32.654;-115.458;2022-11-11T15:32:11;102076.38;;;14.98;31.31
59409;BME280;45213;32.654;-115.458;2022-11-11T15:38:14;102074.63;;;14.98;29.46
59409;BME280;45213;32.654;-115.458;2022-11-11T15:41:02;102080.06;;;15.15;30.52
59409;BME280;45213;32.654;-115.458;2022-11-11T15:43:47;102076.59;;;15.18;29.94
59409;BME280;45213;32.654;-115.458;2022-11-11T15:46:35;102086.44;;;15.39;30.41
59409;BME280;45213;32.654;-115.458;2022-11-11T15:52:34;102082.44;;;15.79;29.66
59409;BME280;45213;32.654;-115.458;2022-11-11T15:55:25;102085.19;;;15.90;29.32
59409;BME280;45213;32.654;-115.458;2022-11-11T16:01:01;102087.88;;;15.99;29.81
59409;BME280;45213;32.654;-115.458;2022-11-11T16:03:50;102088.88;;;16.20;29.56
59409;BME280;45213;32.654;-115.458;2022-11-11T16:06:36;102081.13;;;16.43;30.09
59409;BME280;45213;32.654;-115.458;2022-11-11T16:09:24;102088.28;;;16.73;30.03
59409;BME280;45213;32.654;-115.458;2022-11-11T16:12:11;102080.47;;;16.82;29.00
59409;BME280;45213;32.654;-115.458;2022-11-11T16:14:58;102069.97;;;16.90;29.36
59409;BME280;45213;32.654;-115.458;2022-11-11T16:17:45;102080.47;;;16.82;29.24
59409;BME280;45213;32.654;-115.458;2022-11-11T16:20:37;102078.78;;;17.00;28.86
59409;BME280;45213;32.654;-115.458;2022-11-11T16:23:24;102078.75;;;16.98;28.35
59409;BME280;45213;32.654;-115.458;2022-11-11T16:26:09;102080.59;;;17.28;29.05